Time;durP1;ratioP1;P1;durP2;ratioP2;P2;SDS_P1;SDS_P2;PMS_P1;PMS_P2;Temp;Humidity;BMP_temperature;BMP_pressure;BME280_temperature;BME280_humidity;BME280_pressure;Samples;Min_cycle;Max_cycle;Signal;HPM_P1;HPM_P2
2021/12/02 00:01:59;;;;;;;3.13;1.05;;;13.80;81.40;;;;;;5015007;28;20036;-62
2021/12/02 00:04:27;;;;;;;6.43;1.52;;;13.90;81.70;;;;;;5014805;28;20034;-72
2021/12/02 00:06:53;;;;;;;3.75;0.85;;;13.80;81.60;;;;;;5014922;28;20053;-72
2021/12/02 00:09:18;;;;;;;7.72;1.45;;;13.80;81.60;;;;;;5014943;28;20030;-72
2021/12/02 00:11:44;;;;;;;3.97;1.23;;;13.80;81.90;;;;;;5014509;28;20052;-66
2021/12/02 00:14:11;;;;;;;3.45;1.15;;;13.80;81.80;;;;;;5014455;28;20029;-72
2021/12/02 00:16:49;;;;;;;4.75;1.30;;;13.80;81.70;;;;;;5014677;28;20048;-72
2021/12/02 00:22:02;;;;;;;3.38;1.30;;;13.70;81.80;;;;;;5013585;28;20088;-67
2021/12/02 00:24:34;;;;;;;4.45;1.38;;;13.70;81.60;;;;;;5014076;28;20025;-68
2021/12/02 00:27:00;;;;;;;3.17;1.05;;;13.70;81.50;;;;;;5014399;28;20022;-64
2021/12/02 00:29:29;;;;;;;4.80;1.25;;;13.70;81.40;;;;;;5014195;28;20475;-63
2021/12/02 00:31:54;;;;;;;4.25;0.95;;;13.70;80.80;;;;;;5014347;28;20026;-62
2021/12/02 00:34:22;;;;;;;7.20;1.08;;;13.70;80.90;;;;;;5014007;28;20030;-63
2021/12/02 00:36:48;;;;;;;2.75;1.05;;;13.70;80.40;;;;;;5014282;28;20403;-65
2021/12/02 00:39:19;;;;;;;3.78;1.00;;;13.70;80.40;;;;;;5013766;28;20022;-64
2021/12/02 00:41:45;;;;;;;4.55;0.70;;;13.60;80.40;;;;;;5014273;28;20092;-62
2021/12/02 00:44:12;;;;;;;3.83;0.60;;;13.60;80.40;;;;;;5014187;28;20018;-62
2021/12/02 00:46:38;;;;;;;3.22;0.55;;;13.60;80.50;;;;;;5014174;28;20060;-62
2021/12/02 00:49:11;;;;;;;4.93;1.02;;;13.60;80.00;;;;;;5013994;28;20402;-65
2021/12/02 00:51:38;;;;;;;2.88;0.85;;;13.60;79.60;;;;;;5014939;28;20028;-72
2021/12/02 00:54:05;;;;;;;3.90;0.65;;;13.50;80.00;;;;;;5012188;28;20033;-71
2021/12/02 00:56:32;;;;;;;1.95;0.50;;;13.50;79.60;;;;;;5013921;28;20091;-71
2021/12/02 00:58:58;;;;;;;3.42;0.70;;;13.50;79.50;;;;;;5013670;28;20034;-73
2021/12/02 01:01:26;;;;;;;1.95;0.22;;;13.50;79.70;;;;;;5013879;28;20053;-73
2021/12/02 01:03:59;;;;;;;3.95;0.77;;;13.40;79.70;;;;;;5012504;28;20022;-71
2021/12/02 01:06:25;;;;;;;3.50;0.75;;;13.40;79.50;;;;;;5013629;28;20038;-71
2021/12/02 01:08:52;;;;;;;3.92;0.98;;;13.40;80.10;;;;;;5013338;28;20026;-73
2021/12/02 01:11:18;;;;;;;4.53;0.65;;;13.40;80.40;;;;;;5013598;28;20021;-72
2021/12/02 01:13:45;;;;;;;7.07;0.95;;;13.40;80.40;;;;;;5013561;28;20033;-72
2021/12/02 01:16:11;;;;;;;6.30;1.33;;;13.40;80.50;;;;;;5013476;28;20116;-69
2021/12/02 01:18:37;;;;;;;2.75;0.80;;;13.40;80.50;;;;;;5013569;28;20108;-70
2021/12/02 01:21:04;;;;;;;5.78;1.40;;;13.40;80.80;;;;;;5012296;28;20117;-69
2021/12/02 01:23:32;;;;;;;7.22;1.15;;;13.40;81.00;;;;;;5013126;28;20024;-71
2021/12/02 01:26:07;;;;;;;8.32;1.05;;;13.40;81.00;;;;;;5013486;28;20026;-73
2021/12/02 01:28:34;;;;;;;6.18;1.15;;;13.40;80.50;;;;;;5013437;28;20025;-68
2021/12/02 01:31:00;;;;;;;4.85;1.08;;;13.40;79.50;;;;;;5013447;28;20427;-66
2021/12/02 01:33:27;;;;;;;4.68;0.75;;;13.40;79.70;;;;;;5013316;28;20018;-70
2021/12/02 01:36:12;;;;;;;5.40;0.80;;;13.30;79.00;;;;;;5012943;28;20077;-66
2021/12/02 01:38:37;;;;;;;4.32;0.90;;;13.30;78.50;;;;;;5013208;28;20448;-71
2021/12/02 01:41:04;;;;;;;4.32;0.98;;;13.30;78.70;;;;;;5013218;28;20097;-69
2021/12/02 01:43:49;;;;;;;5.75;0.95;;;13.30;79.70;;;;;;5013384;28;20029;-72
2021/12/02 01:46:20;;;;;;;3.90;0.68;;;13.30;77.80;;;;;;5013159;28;20018;-70
2021/12/02 01:49:00;;;;;;;6.82;1.02;;;13.20;78.20;;;;;;5013348;28;20057;-66
2021/12/02 01:51:27;;;;;;;2.97;0.73;;;13.20;78.00;;;;;;5012959;28;20101;-70
2021/12/02 01:54:02;;;;;;;6.93;0.85;;;13.20;78.40;;;;;;5013169;28;20404;-73
2021/12/02 01:56:31;;;;;;;5.95;0.77;;;13.20;78.90;;;;;;5011972;28;20356;-66
2021/12/02 01:59:09;;;;;;;5.78;1.08;;;13.20;78.70;;;;;;5013177;28;20101;-72
2021/12/02 02:01:37;;;;;;;4.32;0.90;;;13.20;78.10;;;;;;5013148;28;20036;-73
2021/12/02 02:04:03;;;;;;;5.30;1.27;;;13.20;78.40;;;;;;5013225;28;20018;-64
2021/12/02 02:06:38;;;;;;;5.18;1.02;;;13.20;79.00;;;;;;5012633;28;20092;-66
2021/12/02 02:09:06;;;;;;;4.25;0.93;;;13.10;78.70;;;;;;5012183;28;20131;-72
2021/12/02 02:11:32;;;;;;;3.58;0.85;;;13.10;79.00;;;;;;5013444;28;20018;-73
2021/12/02 02:13:59;;;;;;;3.90;0.80;;;13.10;79.40;;;;;;5011337;28;20033;-73
2021/12/02 02:16:27;;;;;;;4.28;1.10;;;13.10;79.40;;;;;;5012978;28;20018;-72
2021/12/02 02:18:53;;;;;;;4.68;1.08;;;13.10;79.20;;;;;;5013183;28;20033;-71
2021/12/02 02:21:22;;;;;;;6.63;1.05;;;13.10;78.90;;;;;;5011690;28;20030;-73
2021/12/02 02:23:58;;;;;;;8.88;1.73;;;13.10;79.40;;;;;;5012879;28;20018;-64
2021/12/02 02:26:38;;;;;;;4.60;1.30;;;13.00;79.50;;;;;;5012743;28;20033;-63
2021/12/02 02:29:06;;;;;;;6.40;1.20;;;13.10;80.00;;;;;;5012716;28;20060;-72
2021/12/02 02:31:33;;;;;;;4.75;0.60;;;13.00;80.50;;;;;;5012707;28;20533;-71
2021/12/02 02:33:59;;;;;;;8.05;1.15;;;13.10;80.70;;;;;;5012954;28;20442;-69
2021/12/02 02:36:29;;;;;;;7.20;0.82;;;13.10;80.90;;;;;;5012239;28;20026;-73
2021/12/02 02:38:55;;;;;;;7.30;0.93;;;13.10;80.10;;;;;;5013113;28;20390;-72
2021/12/02 02:41:24;;;;;;;5.78;1.55;;;13.00;79.60;;;;;;5012602;28;20479;-63
2021/12/02 02:43:52;;;;;;;5.03;0.80;;;13.00;79.30;;;;;;5012659;28;20024;-68
2021/12/02 02:46:23;;;;;;;4.45;0.60;;;13.10;78.90;;;;;;5016200;28;20025;-70
2021/12/02 02:48:49;;;;;;;3.28;0.93;;;13.20;80.70;;;;;;5016509;28;20018;-63
2021/12/02 02:51:14;;;;;;;2.47;0.35;;;13.10;78.00;;;;;;5015890;28;20022;-64
2021/12/02 02:53:40;;;;;;;1.75;0.22;;;13.00;77.00;;;;;;5016230;28;20517;-62
2021/12/02 02:56:10;;;;;;;1.20;0.30;;;12.90;77.10;;;;;;5015994;28;20041;-68
2021/12/02 02:58:51;;;;;;;2.05;0.28;;;12.80;77.20;;;;;;5016147;28;20025;-62
2021/12/02 03:01:46;;;;;;;2.17;0.30;;;12.80;77.40;;;;;;5015751;28;20414;-62
2021/12/02 03:06:56;;;;;;;1.70;0.10;;;12.80;77.50;;;;;;5016021;28;20052;-63
2021/12/02 03:09:36;;;;;;;2.75;0.20;;;12.70;76.80;;;;;;5016696;28;20030;-65
2021/12/02 03:17:07;;;;;;;2.28;0.10;;;12.70;78.00;;;;;;5015808;28;20108;-71
2021/12/02 03:19:34;;;;;;;1.50;0.22;;;12.70;77.70;;;;;;5015392;28;20115;-62
2021/12/02 03:22:00;;;;;;;1.38;0.10;;;12.60;77.80;;;;;;5015575;28;20033;-72
2021/12/02 03:24:26;;;;;;;1.63;0.73;;;12.60;78.50;;;;;;5015453;28;20109;-73
2021/12/02 03:26:52;;;;;;;2.72;0.43;;;12.60;78.80;;;;;;5015460;28;20076;-72
2021/12/02 03:29:18;;;;;;;3.03;0.30;;;12.50;78.90;;;;;;5015368;28;20391;-71
2021/12/02 03:31:44;;;;;;;2.50;0.20;;;12.60;79.20;;;;;;5015616;28;20022;-72
2021/12/02 03:34:10;;;;;;;5.35;1.05;;;12.50;79.60;;;;;;5015007;28;20375;-73
2021/12/02 03:36:36;;;;;;;1.58;0.30;;;12.50;78.90;;;;;;5015253;28;20044;-71
2021/12/02 03:39:04;;;;;;;2.78;0.50;;;12.50;78.90;;;;;;5015442;28;20064;-73
2021/12/02 03:41:30;;;;;;;1.52;0.20;;;12.50;79.40;;;;;;5015091;28;20088;-73
2021/12/02 03:43:56;;;;;;;2.42;0.22;;;12.50;79.70;;;;;;5015342;28;20472;-71
2021/12/02 03:46:23;;;;;;;2.42;0.50;;;12.50;79.50;;;;;;5015180;28;20030;-63
2021/12/02 03:48:51;;;;;;;3.97;0.55;;;12.50;79.40;;;;;;5014735;28;20525;-73
2021/12/02 03:51:17;;;;;;;2.90;0.52;;;12.50;80.10;;;;;;5015072;28;20021;-72
2021/12/02 03:53:44;;;;;;;2.47;0.57;;;12.50;79.40;;;;;;5014736;28;20460;-73
2021/12/02 03:56:09;;;;;;;1.65;0.57;;;12.50;79.80;;;;;;5014212;28;20113;-73
2021/12/02 03:58:37;;;;;;;3.50;0.45;;;12.50;79.90;;;;;;5014775;28;20101;-72
2021/12/02 04:01:04;;;;;;;2.78;0.40;;;12.50;79.90;;;;;;5015102;28;20030;-73
2021/12/02 04:03:29;;;;;;;4.13;0.82;;;12.40;80.10;;;;;;5014508;28;20022;-73
2021/12/02 04:05:56;;;;;;;4.57;0.68;;;12.40;80.30;;;;;;5014655;28;20598;-72
2021/12/02 04:08:29;;;;;;;4.30;0.85;;;12.50;80.30;;;;;;5014580;28;20038;-72
2021/12/02 04:10:59;;;;;;;3.55;0.77;;;12.50;79.70;;;;;;5015006;28;20021;-71
2021/12/02 04:13:30;;;;;;;4.40;0.50;;;12.50;79.70;;;;;;5014586;28;20109;-68
2021/12/02 04:16:00;;;;;;;4.72;0.93;;;12.50;80.30;;;;;;5014781;28;20037;-61
2021/12/02 04:18:26;;;;;;;3.47;0.60;;;12.40;79.40;;;;;;5014121;28;20029;-62
2021/12/02 04:20:51;;;;;;;4.40;0.70;;;12.40;79.30;;;;;;5014877;28;20065;-62
2021/12/02 04:23:17;;;;;;;5.97;0.95;;;12.40;78.60;;;;;;5014515;28;20099;-61
2021/12/02 04:25:43;;;;;;;4.82;0.50;;;12.40;80.10;;;;;;5014522;28;20053;-61
2021/12/02 04:28:08;;;;;;;3.22;0.40;;;12.50;80.00;;;;;;5014395;28;20058;-61
2021/12/02 04:30:34;;;;;;;3.35;0.70;;;12.60;79.60;;;;;;5014118;28;20030;-61
2021/12/02 04:32:59;;;;;;;2.28;0.40;;;12.60;79.00;;;;;;5014626;28;20029;-69
2021/12/02 04:35:25;;;;;;;4.00;0.75;;;12.60;78.70;;;;;;5014969;28;20530;-70
2021/12/02 04:37:53;;;;;;;3.45;0.32;;;12.60;79.30;;;;;;5014158;28;20030;-70
2021/12/02 04:40:21;;;;;;;3.00;0.30;;;12.60;79.30;;;;;;5014250;28;20061;-70
2021/12/02 04:42:48;;;;;;;3.28;0.40;;;12.60;78.40;;;;;;5013905;28;20415;-63
2021/12/02 04:45:14;;;;;;;4.32;0.52;;;12.60;78.90;;;;;;5013979;28;20021;-63
2021/12/02 04:47:39;;;;;;;3.42;0.50;;;12.60;77.90;;;;;;5014039;28;20026;-61
2021/12/02 04:50:08;;;;;;;2.78;0.45;;;12.60;78.00;;;;;;5013873;28;20065;-71
2021/12/02 04:52:34;;;;;;;4.47;0.50;;;12.60;78.30;;;;;;5014122;28;20451;-70
2021/12/02 04:55:00;;;;;;;2.42;0.40;;;12.60;78.20;;;;;;5013715;28;20034;-69
2021/12/02 04:57:25;;;;;;;1.63;0.13;;;12.60;78.40;;;;;;5013990;28;20026;-71
2021/12/02 04:59:51;;;;;;;1.83;0.30;;;12.50;78.80;;;;;;5013419;28;20026;-71
2021/12/02 05:02:16;;;;;;;1.85;0.30;;;12.60;78.20;;;;;;5013872;28;20018;-70
2021/12/02 05:04:42;;;;;;;1.50;0.25;;;12.50;78.50;;;;;;5013491;28;20030;-70
2021/12/02 05:07:08;;;;;;;3.25;0.47;;;12.50;79.30;;;;;;5013449;28;20463;-63
2021/12/02 05:09:33;;;;;;;4.57;0.57;;;12.50;79.30;;;;;;5013381;28;20065;-71
2021/12/02 05:11:59;;;;;;;3.00;0.43;;;12.60;79.10;;;;;;5014035;28;20021;-69
2021/12/02 05:14:24;;;;;;;2.25;0.35;;;12.60;78.60;;;;;;5013261;28;20033;-70
2021/12/02 05:16:50;;;;;;;2.22;0.40;;;12.50;77.30;;;;;;5013735;28;20026;-70
2021/12/02 05:19:15;;;;;;;1.70;0.17;;;12.40;77.20;;;;;;5013544;28;20012;-69
2021/12/02 05:21:41;;;;;;;2.88;0.30;;;12.40;78.10;;;;;;5013497;28;20549;-69
2021/12/02 05:24:07;;;;;;;1.50;0.30;;;12.40;77.80;;;;;;5013629;28;20018;-63
2021/12/02 05:26:33;;;;;;;2.10;0.32;;;12.40;78.50;;;;;;5013549;28;20065;-70
2021/12/02 05:28:59;;;;;;;1.85;0.20;;;12.40;77.80;;;;;;5013034;28;20026;-68
2021/12/02 05:31:24;;;;;;;2.78;0.40;;;12.40;78.00;;;;;;5013426;28;20052;-61
2021/12/02 05:33:50;;;;;;;2.65;0.22;;;12.30;78.70;;;;;;5013324;28;20045;-67
2021/12/02 05:36:16;;;;;;;1.25;0.20;;;12.30;79.00;;;;;;5013436;28;20041;-62
2021/12/02 05:38:42;;;;;;;2.22;0.40;;;12.30;79.40;;;;;;5013432;28;20435;-62
2021/12/02 05:41:07;;;;;;;3.35;0.40;;;12.30;78.90;;;;;;5013297;28;20025;-61
2021/12/02 05:43:34;;;;;;;2.88;0.60;;;12.20;78.60;;;;;;5013096;28;20118;-63
2021/12/02 05:45:59;;;;;;;4.72;0.77;;;12.20;79.20;;;;;;5013161;28;20391;-61
2021/12/02 05:48:25;;;;;;;3.05;0.52;;;12.20;79.00;;;;;;5013625;28;20033;-63
2021/12/02 05:50:51;;;;;;;3.85;0.70;;;12.10;79.00;;;;;;5013351;28;20538;-62
2021/12/02 05:53:17;;;;;;;1.48;0.52;;;12.10;79.40;;;;;;5013419;28;20099;-62
2021/12/02 05:55:43;;;;;;;2.78;0.75;;;12.10;79.40;;;;;;5014492;28;20104;-62
2021/12/02 05:58:11;;;;;;;4.50;1.30;;;12.10;79.50;;;;;;5014612;28;20116;-69
2021/12/02 06:00:37;;;;;;;2.42;0.68;;;12.10;79.60;;;;;;5008180;28;20022;-68
2021/12/02 06:03:03;;;;;;;7.78;1.55;;;12.10;79.50;;;;;;4993741;28;20034;-70
2021/12/02 06:05:29;;;;;;;4.15;1.30;;;12.10;79.40;;;;;;4992943;28;20038;-69
2021/12/02 06:07:58;;;;;;;4.05;0.90;;;12.10;79.60;;;;;;4993532;28;20085;-64
2021/12/02 06:10:24;;;;;;;5.53;1.40;;;12.10;79.60;;;;;;4993471;28;20057;-66
2021/12/02 06:12:50;;;;;;;9.18;2.03;;;12.00;79.90;;;;;;4993212;28;20461;-61
2021/12/02 06:15:18;;;;;;;4.93;1.35;;;12.10;79.90;;;;;;4993357;28;20141;-67
2021/12/02 06:17:43;;;;;;;6.70;1.90;;;12.00;79.60;;;;;;5004684;28;20026;-61
2021/12/02 06:20:11;;;;;;;6.68;1.77;;;12.00;80.80;;;;;;5001731;28;20023;-61
2021/12/02 06:22:37;;;;;;;7.60;1.15;;;12.00;80.90;;;;;;4997180;28;20065;-62
2021/12/02 06:27:40;;;;;;;3.83;1.00;;;12.10;80.30;;;;;;4996587;28;20030;-61
2021/12/02 06:30:07;;;;;;;8.80;1.25;;;12.10;80.10;;;;;;4996660;28;20026;-64
2021/12/02 06:32:32;;;;;;;12.18;1.60;;;12.00;80.40;;;;;;4997520;28;20067;-61
2021/12/02 06:34:58;;;;;;;8.25;1.30;;;12.00;80.40;;;;;;4999223;28;20121;-61
2021/12/02 06:37:24;;;;;;;7.55;1.10;;;12.00;79.90;;;;;;5002344;28;20041;-61
2021/12/02 06:39:50;;;;;;;8.38;1.13;;;12.00;79.70;;;;;;5001881;28;20092;-62
2021/12/02 06:42:16;;;;;;;5.53;1.13;;;11.90;80.30;;;;;;5006900;28;20398;-64
2021/12/02 06:44:42;;;;;;;12.70;1.33;;;11.90;79.80;;;;;;5000187;28;20507;-61
2021/12/02 06:47:08;;;;;;;4.60;1.00;;;11.90;79.30;;;;;;4994932;28;20092;-60
2021/12/02 06:49:34;;;;;;;3.78;0.60;;;11.90;79.50;;;;;;5000851;28;20471;-62
2021/12/02 06:52:01;;;;;;;2.28;0.40;;;11.90;79.60;;;;;;4996271;28;20025;-61
2021/12/02 06:54:26;;;;;;;11.45;0.70;;;11.70;78.60;;;;;;5001998;28;20042;-61
2021/12/02 06:56:53;;;;;;;0.38;0.17;;;11.50;79.50;;;;;;4996832;28;20018;-61
2021/12/02 06:59:19;;;;;;;0.90;0.35;;;11.50;77.70;;;;;;4998477;28;20030;-61
2021/12/02 07:01:45;;;;;;;1.48;0.20;;;11.30;76.10;;;;;;5008714;28;20029;-62
2021/12/02 07:04:11;;;;;;;1.85;0.75;;;11.10;76.10;;;;;;5001849;28;20018;-62
2021/12/02 07:06:38;;;;;;;2.38;0.20;;;11.00;76.60;;;;;;5004686;28;20038;-62
2021/12/02 07:09:05;;;;;;;0.43;0.10;;;11.00;77.00;;;;;;4998787;28;20117;-65
2021/12/02 07:11:31;;;;;;;2.55;0.40;;;11.00;76.70;;;;;;4999574;28;20026;-61
2021/12/02 07:14:01;;;;;;;6.07;0.40;;;10.90;76.80;;;;;;4994919;28;20460;-63
2021/12/02 07:16:26;;;;;;;7.07;0.38;;;10.80;78.00;;;;;;5002123;28;20069;-62
2021/12/02 07:18:57;;;;;;;1.42;0.20;;;11.00;80.20;;;;;;4995058;28;20041;-63
2021/12/02 07:21:24;;;;;;;7.35;0.60;;;11.10;78.10;;;;;;4995168;28;20041;-67
2021/12/02 07:23:51;;;;;;;1.52;0.25;;;11.20;77.70;;;;;;4994900;28;20069;-72
2021/12/02 07:26:17;;;;;;;2.47;0.13;;;11.20;76.60;;;;;;4996142;28;20084;-74
2021/12/02 07:28:44;;;;;;;1.52;0.65;;;11.00;76.90;;;;;;4995581;28;20509;-74
2021/12/02 07:31:11;;;;;;;1.77;0.20;;;10.80;77.40;;;;;;4996133;28;20111;-73
2021/12/02 07:33:38;;;;;;;4.57;0.30;;;10.80;78.50;;;;;;5001739;28;20027;-73
2021/12/02 07:36:04;;;;;;;2.88;0.40;;;10.70;78.20;;;;;;4997702;28;20041;-74
2021/12/02 07:38:30;;;;;;;3.78;0.60;;;10.60;79.00;;;;;;5014739;28;20025;-74
2021/12/02 07:41:03;;;;;;;3.92;0.60;;;10.60;79.30;;;;;;5010512;28;20487;-74
2021/12/02 07:43:35;;;;;;;3.78;0.35;;;10.50;79.30;;;;;;5011397;28;20037;-74
2021/12/02 07:46:01;;;;;;;2.38;0.70;;;10.50;80.60;;;;;;5013102;28;20026;-74
2021/12/02 07:48:27;;;;;;;3.55;0.60;;;10.50;79.90;;;;;;5009350;28;20394;-72
2021/12/02 07:51:00;;;;;;;2.55;0.52;;;10.50;79.70;;;;;;5012182;28;20026;-74
2021/12/02 07:53:27;;;;;;;2.15;0.57;;;10.50;80.30;;;;;;5014222;28;20057;-73
2021/12/02 07:55:54;;;;;;;2.60;0.57;;;10.40;80.90;;;;;;5003006;28;20049;-74
2021/12/02 07:58:22;;;;;;;3.25;0.50;;;10.40;81.20;;;;;;4998667;28;20029;-71
2021/12/02 08:00:49;;;;;;;2.50;0.80;;;10.60;80.70;;;;;;5010143;28;20032;-74
2021/12/02 08:03:15;;;;;;;1.88;0.30;;;10.70;81.00;;;;;;5010295;28;20034;-63
2021/12/02 08:05:42;;;;;;;2.65;0.30;;;10.70;80.10;;;;;;5010328;28;20412;-70
2021/12/02 08:08:08;;;;;;;1.90;0.40;;;10.70;80.90;;;;;;5001591;28;20443;-60
2021/12/02 08:10:35;;;;;;;3.75;0.40;;;10.80;80.50;;;;;;4995326;28;20033;-61
2021/12/02 08:13:03;;;;;;;5.97;0.63;;;10.80;79.50;;;;;;4994895;28;20149;-62
2021/12/02 08:15:30;;;;;;;0.88;0.22;;;10.80;82.40;;;;;;4994905;28;20092;-60
2021/12/02 08:17:57;;;;;;;1.63;0.35;;;11.00;81.50;;;;;;4994871;28;20023;-62
2021/12/02 08:20:25;;;;;;;2.47;0.28;;;11.20;80.30;;;;;;4995077;28;20396;-63
2021/12/02 08:22:52;;;;;;;3.80;0.30;;;11.10;78.70;;;;;;5009591;28;20022;-68
2021/12/02 08:25:20;;;;;;;4.35;0.50;;;11.00;78.90;;;;;;5014405;28;20537;-59
2021/12/02 08:27:46;;;;;;;2.75;0.40;;;10.90;79.40;;;;;;5014418;28;20034;-61
2021/12/02 08:30:15;;;;;;;6.45;0.85;;;10.80;79.70;;;;;;5014206;28;20467;-60
2021/12/02 08:32:43;;;;;;;2.40;0.50;;;10.80;80.20;;;;;;5014187;28;20564;-68
2021/12/02 08:35:10;;;;;;;3.42;0.85;;;10.80;80.20;;;;;;5012232;28;20048;-64
2021/12/02 08:37:40;;;;;;;6.30;1.00;;;10.70;80.80;;;;;;5011438;28;20034;-59
2021/12/02 08:40:07;;;;;;;4.70;0.88;;;10.70;80.80;;;;;;5002927;28;20030;-68
2021/12/02 08:42:32;;;;;;;2.75;0.70;;;10.70;81.30;;;;;;5002205;28;20022;-64
2021/12/02 08:44:59;;;;;;;8.07;1.48;;;10.60;81.60;;;;;;4998241;28;20048;-61
2021/12/02 08:47:27;;;;;;;6.25;1.40;;;10.60;82.00;;;;;;5009660;28;20018;-61
2021/12/02 08:49:54;;;;;;;7.45;1.45;;;10.70;81.30;;;;;;4995282;28;20053;-73
2021/12/02 08:52:21;;;;;;;5.95;2.22;;;10.70;82.00;;;;;;4993826;28;20101;-74
2021/12/02 08:54:49;;;;;;;9.20;1.98;;;10.70;83.00;;;;;;4993926;28;20114;-75
2021/12/02 08:57:14;;;;;;;5.05;1.27;;;10.80;82.60;;;;;;4992605;28;20487;-75
2021/12/02 08:59:43;;;;;;;12.38;1.42;;;10.80;82.40;;;;;;4993827;28;20058;-73
2021/12/02 09:02:08;;;;;;;3.83;0.77;;;10.80;82.00;;;;;;4995099;28;20019;-73
2021/12/02 09:04:34;;;;;;;4.85;1.02;;;10.80;81.60;;;;;;4994066;28;20038;-62
2021/12/02 09:06:59;;;;;;;7.13;0.60;;;10.80;81.80;;;;;;4993723;28;20038;-62
2021/12/02 09:09:26;;;;;;;3.88;0.70;;;10.80;81.40;;;;;;4994014;28;20022;-60
2021/12/02 09:11:54;;;;;;;3.75;0.52;;;10.80;80.10;;;;;;4994102;28;20044;-68
2021/12/02 09:14:19;;;;;;;5.13;0.90;;;10.80;79.40;;;;;;4993598;28;20040;-59
2021/12/02 09:16:45;;;;;;;4.47;0.70;;;10.60;78.90;;;;;;4993584;28;20026;-67
2021/12/02 09:19:11;;;;;;;5.15;0.93;;;10.50;79.30;;;;;;4992824;28;20078;-65
2021/12/02 09:21:36;;;;;;;5.38;0.68;;;10.60;79.50;;;;;;4992994;28;20030;-74
2021/12/02 09:24:02;;;;;;;8.48;1.70;;;10.60;80.70;;;;;;4993134;28;20030;-74
2021/12/02 09:26:28;;;;;;;5.60;1.15;;;10.60;80.10;;;;;;4993321;28;20030;-73
2021/12/02 09:28:56;;;;;;;4.88;0.85;;;10.60;80.40;;;;;;4993170;28;20026;-60
2021/12/02 09:31:22;;;;;;;3.30;0.70;;;10.50;80.10;;;;;;4993118;28;20076;-74
2021/12/02 09:33:48;;;;;;;2.72;0.68;;;10.40;80.80;;;;;;4996893;28;20029;-61
2021/12/02 09:36:16;;;;;;;2.78;0.40;;;10.40;81.40;;;;;;5012627;28;20041;-71
2021/12/02 09:38:42;;;;;;;3.35;0.68;;;10.50;80.90;;;;;;5013285;28;20376;-59
2021/12/02 09:41:08;;;;;;;3.80;0.40;;;10.50;81.30;;;;;;5013239;28;20026;-59
2021/12/02 09:43:34;;;;;;;3.33;0.57;;;10.50;81.30;;;;;;5010606;28;20040;-66
2021/12/02 09:46:00;;;;;;;4.57;0.50;;;10.50;81.30;;;;;;4993714;28;20029;-72
2021/12/02 09:48:28;;;;;;;2.30;0.50;;;10.50;81.10;;;;;;4992400;28;20022;-73
2021/12/02 09:51:05;;;;;;;2.17;0.47;;;10.50;81.40;;;;;;4993127;28;20030;-66
2021/12/02 09:53:37;;;;;;;5.15;0.85;;;10.50;81.30;;;;;;4994240;28;20113;-69
2021/12/02 09:56:19;;;;;;;3.75;0.60;;;10.50;80.80;;;;;;4997504;28;20030;-70
2021/12/02 09:58:46;;;;;;;1.75;0.40;;;10.40;80.90;;;;;;4997796;28;20460;-74
2021/12/02 10:01:14;;;;;;;4.05;0.65;;;10.30;81.50;;;;;;4997135;28;20109;-70
2021/12/02 10:03:46;;;;;;;2.95;0.50;;;10.30;81.90;;;;;;4997652;28;20074;-73
2021/12/02 10:06:21;;;;;;;2.78;1.02;;;10.30;81.90;;;;;;4996882;28;20030;-71
2021/12/02 10:08:59;;;;;;;3.80;0.70;;;10.30;82.60;;;;;;5006557;28;20493;-71
2021/12/02 10:12:01;;;;;;;3.97;0.82;;;10.40;82.90;;;;;;5006176;28;20050;-74
2021/12/02 10:14:38;;;;;;;2.65;0.63;;;10.40;82.90;;;;;;5012563;28;20022;-71
2021/12/02 10:17:13;;;;;;;3.72;0.70;;;10.40;83.30;;;;;;4997662;28;20031;-71
2021/12/02 10:22:39;;;;;;;7.95;0.75;;;10.40;83.80;;;;;;4997181;28;20027;-74
2021/12/02 10:25:06;;;;;;;2.65;0.52;;;10.50;83.80;;;;;;4998025;28;20022;-76
2021/12/02 10:27:31;;;;;;;5.43;1.02;;;10.50;83.20;;;;;;5008709;28;20041;-74
2021/12/02 10:29:57;;;;;;;4.00;0.70;;;10.50;83.40;;;;;;5017192;28;20055;-74
2021/12/02 10:32:25;;;;;;;2.10;0.63;;;10.50;83.40;;;;;;5009580;28;20018;-76
2021/12/02 10:35:06;;;;;;;2.75;0.70;;;10.50;83.20;;;;;;5008100;28;20034;-68
2021/12/02 10:37:34;;;;;;;1.90;0.68;;;10.50;83.00;;;;;;5008742;28;20410;-68
2021/12/02 10:40:10;;;;;;;2.75;0.55;;;10.50;82.90;;;;;;5009705;28;20081;-68
2021/12/02 10:42:41;;;;;;;1.73;0.22;;;10.50;83.90;;;;;;5005935;28;20030;-71
2021/12/02 10:45:17;;;;;;;3.08;0.20;;;10.50;82.50;;;;;;5007707;28;20044;-69
2021/12/02 10:47:49;;;;;;;1.27;0.20;;;10.50;82.30;;;;;;5000574;28;20480;-64
2021/12/02 10:50:15;;;;;;;1.20;0.30;;;10.50;81.80;;;;;;4994992;28;20035;-64
2021/12/02 10:52:40;;;;;;;2.20;0.17;;;10.50;81.80;;;;;;5002651;28;20040;-77
2021/12/02 10:55:16;;;;;;;1.23;0.10;;;10.40;81.70;;;;;;5004815;28;20074;-64
2021/12/02 10:58:08;;;;;;;1.92;0.10;;;10.40;81.40;;;;;;5009817;28;20026;-70
2021/12/02 11:00:42;;;;;;;2.90;0.30;;;10.40;81.90;;;;;;5000067;28;20042;-74
2021/12/02 11:03:10;;;;;;;1.23;0.25;;;10.50;81.90;;;;;;4997608;28;20023;-61
2021/12/02 11:05:44;;;;;;;1.85;0.35;;;10.50;81.60;;;;;;4997511;28;20037;-60
2021/12/02 11:08:12;;;;;;;1.17;0.30;;;10.50;80.70;;;;;;5014388;28;20068;-74
2021/12/02 11:10:50;;;;;;;1.30;0.20;;;10.50;80.70;;;;;;5014273;28;20022;-75
2021/12/02 11:13:24;;;;;;;1.90;0.43;;;10.40;81.60;;;;;;4997199;28;20029;-73
2021/12/02 11:15:50;;;;;;;1.00;0.25;;;10.30;81.40;;;;;;5001144;28;20042;-72
2021/12/02 11:18:17;;;;;;;3.75;1.48;;;10.20;82.00;;;;;;5012041;28;20541;-73
2021/12/02 11:20:45;;;;;;;3.80;1.40;;;10.30;82.70;;;;;;5006219;28;20084;-73
2021/12/02 11:23:15;;;;;;;2.60;0.80;;;10.20;82.20;;;;;;5002383;28;20041;-72
2021/12/02 11:25:56;;;;;;;1.75;1.00;;;10.30;82.20;;;;;;5005557;28;20030;-74
2021/12/02 11:28:24;;;;;;;2.38;1.00;;;10.30;82.50;;;;;;5008820;28;20028;-74
2021/12/02 11:30:50;;;;;;;3.13;1.02;;;10.30;82.60;;;;;;5000511;28;20077;-72
2021/12/02 11:33:19;;;;;;;1.02;0.50;;;10.30;82.60;;;;;;5001574;28;20018;-71
2021/12/02 11:35:46;;;;;;;1.85;0.40;;;10.40;82.60;;;;;;5000797;28;20042;-74
2021/12/02 11:38:14;;;;;;;1.42;0.57;;;10.40;82.10;;;;;;5012192;28;20033;-75
2021/12/02 11:40:46;;;;;;;1.83;0.70;;;10.40;81.50;;;;;;4995413;28;20035;-76
2021/12/02 11:43:15;;;;;;;2.10;0.53;;;10.40;82.30;;;;;;4994354;28;20053;-77
2021/12/02 11:45:45;;;;;;;2.10;0.68;;;10.30;83.50;;;;;;4998522;28;20077;-71
2021/12/02 11:48:19;;;;;;;3.83;0.70;;;10.40;83.80;;;;;;5002692;28;20349;-67
2021/12/02 11:50:48;;;;;;;3.83;0.47;;;10.40;84.10;;;;;;5001070;28;20106;-74
2021/12/02 11:53:21;;;;;;;2.90;0.60;;;10.50;84.20;;;;;;5021763;28;20014;-76
2021/12/02 11:55:48;;;;;;;5.05;0.98;;;10.50;84.20;;;;;;5015565;28;20080;-76
2021/12/02 11:58:13;;;;;;;2.45;0.60;;;10.70;85.10;;;;;;5036679;28;20025;-76
2021/12/02 12:00:39;;;;;;;4.20;0.50;;;10.70;84.70;;;;;;5003873;28;20077;-74
2021/12/02 12:13:48;;;;;;;0.88;0.30;;;10.70;83.10;;;;;;5126659;27;20770;-70
2021/12/02 12:16:29;;;;;;;6.38;1.40;;;11.20;83.20;;;;;;5111231;28;20035;-68
2021/12/02 12:19:12;;;;;;;2.70;0.60;;;11.20;84.50;;;;;;5110338;28;20020;-68
2021/12/02 12:21:40;;;;;;;1.35;0.73;;;11.10;84.40;;;;;;5114820;27;20138;-73
2021/12/02 12:24:08;;;;;;;10.18;0.90;;;11.10;83.60;;;;;;5112551;28;20460;-72
2021/12/02 12:26:40;;;;;;;5.85;0.40;;;11.10;85.10;;;;;;5108479;28;20023;-76
2021/12/02 12:29:06;;;;;;;;;;;11.30;86.60;;;;;;5109422;28;20088;-70
2021/12/02 12:31:46;;;;;;;3.63;0.45;;;11.20;84.00;;;;;;5108210;28;19908;-72
2021/12/02 12:34:30;;;;;;;1.40;0.60;;;11.20;85.90;;;;;;5107987;28;20039;-78
2021/12/02 12:37:02;;;;;;;3.72;0.40;;;11.30;85.50;;;;;;5108796;28;20032;-71
2021/12/02 12:39:33;;;;;;;1.88;0.68;;;11.30;85.80;;;;;;5107930;28;20347;-66
2021/12/02 12:42:16;;;;;;;3.45;0.80;;;11.40;85.70;;;;;;5105840;28;20385;-69
2021/12/02 12:44:46;;;;;;;3.80;1.20;;;11.30;84.80;;;;;;5106007;28;20051;-76
2021/12/02 12:47:12;;;;;;;4.80;1.38;;;11.40;83.10;;;;;;5107628;28;20024;-77
2021/12/02 12:49:37;;;;;;;3.00;0.85;;;11.40;82.70;;;;;;5106846;28;20036;-75
2021/12/02 12:52:14;;;;;;;1.52;0.30;;;11.40;83.90;;;;;;5107997;28;20508;-72
2021/12/02 12:54:40;;;;;;;0.50;0.10;;;11.40;82.20;;;;;;5107939;28;20020;-71
2021/12/02 12:57:07;;;;;;;0.85;0.40;;;11.30;81.40;;;;;;5107836;28;20443;-70
2021/12/02 12:59:50;;;;;;;3.40;0.60;;;11.30;81.40;;;;;;5115919;27;20371;-71
2021/12/02 13:02:16;;;;;;;1.42;0.50;;;11.20;82.40;;;;;;5115323;28;20122;-71
2021/12/02 13:04:54;;;;;;;0.60;0.38;;;11.30;80.80;;;;;;5116775;28;20149;-69
2021/12/02 13:07:21;;;;;;;1.85;0.17;;;11.20;80.60;;;;;;5115566;28;20071;-67
2021/12/02 13:10:12;;;;;;;2.53;0.10;;;11.10;81.10;;;;;;5115194;28;20027;-68
2021/12/02 13:12:50;;;;;;;1.80;0.10;;;11.10;80.70;;;;;;5106353;28;20043;-70
2021/12/02 13:15:19;;;;;;;0.55;0.08;;;11.10;80.20;;;;;;5077047;28;20051;-69
2021/12/02 13:17:53;;;;;;;1.08;0.10;;;11.10;82.10;;;;;;5075517;28;20048;-69
2021/12/02 13:20:31;;;;;;;0.45;0.10;;;11.10;80.70;;;;;;5080736;28;20040;-69
2021/12/02 13:23:12;;;;;;;0.73;0.10;;;11.00;80.30;;;;;;5086131;28;20036;-69